Terminal Aerodrome Forecast
Issued by NWS Binghamton, NY

Home | Current Version | Previous Version | Text Only | Print | Product List | Glossary On
Versions: 1 2 3 4 5 6 7 8 9 10 11 12 13 14 15 16 17 18 19 20 21 22 23 24 25 26 27 28 29
000
FTUS41 KBGM 240900 AAA
TAFBGM
TAF AMD
KBGM 240900Z 2409/2506 33010G18KT P6SM SCT015 BKN035
      TEMPO 2409/2413 OVC015
     FM241300 33010G18KT P6SM FEW015 BKN060
     FM241700 32010G18KT P6SM SCT070
     FM242200 31009KT P6SM SKC=

USA.gov is the U.S. government's official web portal to all federal, state and local government web resources and services.